createdAt,value
2023-05-19T00:02:22.626Z,101915.50
2023-05-19T00:05:08.594Z,101934.13
2023-05-19T00:07:58.641Z,101928.75
2023-05-19T00:10:44.337Z,101926.03
2023-05-19T00:13:29.475Z,101924.19
2023-05-19T00:16:15.566Z,101929.72
2023-05-19T00:19:02.883Z,101920.16
2023-05-19T00:21:48.164Z,101927.34
2023-05-19T00:24:34.685Z,101921.16
2023-05-19T00:27:19.792Z,101915.44
2023-05-19T00:30:05.849Z,101919.41
2023-05-19T00:32:51.441Z,101901.00
2023-05-19T00:35:36.367Z,101895.19
2023-05-19T00:38:21.785Z,101884.13
2023-05-19T00:41:07.855Z,101883.50
2023-05-19T00:43:53.336Z,101883.63
2023-05-19T00:46:38.361Z,101881.06
2023-05-19T00:49:23.687Z,101891.31
2023-05-19T00:52:09.179Z,101900.59
2023-05-19T00:54:55.619Z,101896.75
2023-05-19T00:57:42.528Z,101897.81
2023-05-19T01:00:28.012Z,101910.84
2023-05-19T01:03:13.530Z,101916.03
2023-05-19T01:05:59.000Z,101915.84
2023-05-19T01:08:46.753Z,101916.88
2023-05-19T01:11:31.843Z,101908.41
2023-05-19T01:14:18.639Z,101925.34
2023-05-19T01:17:14.355Z,101927.63
2023-05-19T01:20:12.308Z,101928.13
2023-05-19T01:23:03.427Z,101933.16
2023-05-19T01:26:25.052Z,101939.41
2023-05-19T01:29:42.490Z,101929.16
2023-05-19T01:32:30.466Z,101931.91
2023-05-19T01:35:17.285Z,101936.44
2023-05-19T01:38:03.942Z,101933.22
2023-05-19T01:40:51.377Z,101930.97
2023-05-19T01:43:37.224Z,101930.66
2023-05-19T01:46:23.671Z,101922.47
2023-05-19T01:49:09.249Z,101924.06
2023-05-19T01:51:54.667Z,101913.22
2023-05-19T01:54:39.891Z,101914.25
2023-05-19T01:57:28.243Z,101912.38
2023-05-19T02:00:38.900Z,101918.56
2023-05-19T02:03:42.709Z,101918.03
2023-05-19T02:06:44.781Z,101914.63
2023-05-19T02:09:53.161Z,101925.13
2023-05-19T02:12:39.789Z,101921.31
2023-05-19T02:15:29.070Z,101916.81
2023-05-19T02:18:15.426Z,101912.66
2023-05-19T02:21:00.716Z,101912.09
2023-05-19T02:23:46.297Z,101916.22
2023-05-19T02:26:31.585Z,101904.41
2023-05-19T02:29:17.128Z,101904.88
2023-05-19T02:32:02.686Z,101897.16
2023-05-19T02:34:48.018Z,101889.78
2023-05-19T02:37:33.287Z,101892.34
2023-05-19T02:40:18.665Z,101898.47
2023-05-19T02:43:03.758Z,101899.91
2023-05-19T02:45:48.734Z,101892.38
2023-05-19T02:48:34.378Z,101883.34
2023-05-19T02:51:19.552Z,101876.09
2023-05-19T02:54:05.092Z,101890.03
2023-05-19T02:56:50.344Z,101892.47
2023-05-19T02:59:35.534Z,101886.06
2023-05-19T03:02:20.889Z,101888.25
2023-05-19T03:05:06.868Z,101888.22
2023-05-19T03:07:52.070Z,101883.31
2023-05-19T03:10:37.653Z,101882.59
2023-05-19T03:13:22.484Z,101880.91
2023-05-19T03:16:08.489Z,101879.63
2023-05-19T03:18:53.569Z,101878.09
2023-05-19T03:21:38.593Z,101877.00
2023-05-19T03:24:24.130Z,101885.47
2023-05-19T03:27:09.498Z,101880.66
2023-05-19T03:29:54.903Z,101873.09
2023-05-19T03:32:40.416Z,101891.69
2023-05-19T03:35:25.459Z,101890.88
2023-05-19T03:38:10.944Z,101897.13
2023-05-19T03:40:56.369Z,101894.88
2023-05-19T03:43:42.025Z,101896.00
2023-05-19T03:46:27.052Z,101896.19
2023-05-19T03:49:12.560Z,101903.00
2023-05-19T03:51:57.995Z,101896.13
2023-05-19T03:54:43.378Z,101904.88
2023-05-19T03:57:28.854Z,101893.13
2023-05-19T04:00:14.642Z,101891.38
2023-05-19T04:03:00.235Z,101891.84
2023-05-19T04:05:45.804Z,101905.22
2023-05-19T04:08:31.204Z,101909.91
2023-05-19T04:11:16.589Z,101913.72
2023-05-19T04:14:01.832Z,101916.97
2023-05-19T04:16:47.181Z,101922.91
2023-05-19T04:19:32.546Z,101918.13
2023-05-19T04:22:17.536Z,101927.16
2023-05-19T04:25:02.878Z,101931.03
2023-05-19T04:27:47.818Z,101928.84
2023-05-19T04:30:33.649Z,101917.88
2023-05-19T04:33:19.078Z,101911.00
2023-05-19T04:36:05.800Z,101904.25
2023-05-19T04:38:50.919Z,101909.16
2023-05-19T04:41:36.146Z,101899.13
2023-05-19T04:44:21.593Z,101903.47
2023-05-19T04:47:09.871Z,101906.56
2023-05-19T04:49:55.347Z,101909.97
2023-05-19T04:52:40.979Z,101919.31
2023-05-19T04:55:26.302Z,101910.72
2023-05-19T04:58:11.647Z,101913.53
2023-05-19T05:00:57.017Z,101914.66
2023-05-19T05:03:42.859Z,101907.56
2023-05-19T05:06:28.254Z,101921.09
2023-05-19T05:09:14.540Z,101918.31
2023-05-19T05:12:01.081Z,101910.72
2023-05-19T05:14:46.641Z,101896.31
2023-05-19T05:17:32.131Z,101889.66
2023-05-19T05:20:17.765Z,101876.34
2023-05-19T05:23:03.380Z,101866.84
2023-05-19T05:25:48.775Z,101859.31
2023-05-19T05:28:33.796Z,101862.94
2023-05-19T05:31:19.217Z,101849.16
2023-05-19T05:34:04.736Z,101836.91
2023-05-19T05:36:49.795Z,101844.03
2023-05-19T05:39:35.181Z,101841.81
2023-05-19T05:42:20.625Z,101829.72
2023-05-19T05:45:06.735Z,101814.50
2023-05-19T05:47:52.412Z,101805.63
2023-05-19T05:50:38.096Z,101811.22
2023-05-19T05:53:25.556Z,101825.53
2023-05-19T05:56:11.780Z,101820.63
2023-05-19T05:58:57.134Z,101816.91
2023-05-19T06:01:42.576Z,101801.16
2023-05-19T06:04:27.926Z,101800.84
2023-05-19T06:07:13.408Z,101801.00
2023-05-19T06:09:58.605Z,101787.69
2023-05-19T06:12:43.864Z,101768.25
2023-05-19T06:15:29.492Z,101766.72
2023-05-19T06:18:14.818Z,101764.19
2023-05-19T06:21:00.276Z,101749.13
2023-05-19T06:23:45.540Z,101737.31
2023-05-19T06:26:30.915Z,101681.63
2023-05-19T06:29:16.196Z,101659.97
2023-05-19T06:32:01.573Z,101627.00
2023-05-19T06:34:46.981Z,101596.38
2023-05-19T06:37:32.237Z,101591.69
2023-05-19T06:40:17.690Z,101591.31
2023-05-19T06:43:02.874Z,101587.44
2023-05-19T06:45:48.048Z,101563.47
2023-05-19T06:48:33.412Z,101526.56
2023-05-19T06:51:18.461Z,101512.88
2023-05-19T06:54:03.913Z,101480.75
2023-05-19T06:56:48.870Z,101488.13
2023-05-19T06:59:34.287Z,101494.47
2023-05-19T07:02:19.642Z,101493.75
2023-05-19T07:05:05.306Z,101482.56
2023-05-19T07:07:50.475Z,101501.72
2023-05-19T07:10:35.924Z,101488.84
2023-05-19T07:13:21.322Z,101469.66
2023-05-19T07:16:06.444Z,101474.19
2023-05-19T07:18:51.621Z,101482.06
2023-05-19T07:21:36.980Z,101477.09
2023-05-19T07:24:22.435Z,101477.09
2023-05-19T07:27:07.566Z,101470.22
2023-05-19T07:29:52.950Z,101450.16
2023-05-19T07:32:38.149Z,101440.69
2023-05-19T07:35:23.863Z,101423.22
2023-05-19T07:38:08.919Z,101425.06
2023-05-19T07:40:54.443Z,101441.78
2023-05-19T07:43:39.704Z,101453.22
2023-05-19T07:46:24.832Z,101423.63
2023-05-19T07:49:10.258Z,101414.13
2023-05-19T07:51:55.323Z,101382.66
2023-05-19T07:54:40.737Z,101397.44
2023-05-19T07:57:26.085Z,101435.91
2023-05-19T08:00:11.971Z,101409.78
2023-05-19T08:02:57.596Z,101428.94
2023-05-19T08:05:43.240Z,101433.28
2023-05-19T08:08:28.703Z,101442.06
2023-05-19T08:11:15.672Z,101441.22
2023-05-19T08:14:06.283Z,101406.34
2023-05-19T08:16:51.521Z,101429.03
2023-05-19T08:19:36.918Z,101439.50
2023-05-19T08:22:22.248Z,101387.97
2023-05-19T08:25:07.835Z,101380.97
2023-05-19T08:27:52.932Z,101368.72
2023-05-19T08:30:38.010Z,101354.00
2023-05-19T08:33:23.367Z,101378.44
2023-05-19T08:36:09.008Z,101399.38
2023-05-19T08:38:54.253Z,101407.94
2023-05-19T08:41:39.598Z,101357.41
2023-05-19T08:44:24.987Z,101353.91
2023-05-19T08:47:10.856Z,101351.16
2023-05-19T08:50:03.645Z,101339.75
2023-05-19T08:53:12.762Z,101359.75
2023-05-19T08:56:21.192Z,101308.41
2023-05-19T08:59:07.832Z,101342.25
2023-05-19T09:01:54.007Z,101340.47
2023-05-19T09:04:40.389Z,101308.31
2023-05-19T09:07:26.861Z,101320.69
2023-05-19T09:10:12.319Z,101343.22
2023-05-19T09:12:57.699Z,101318.63
2023-05-19T09:15:45.257Z,101351.00
2023-05-19T09:18:30.789Z,101325.66
2023-05-19T09:21:16.113Z,101330.59
2023-05-19T09:24:06.038Z,101321.13
2023-05-19T09:26:51.182Z,101321.16
2023-05-19T09:29:36.514Z,101318.25
2023-05-19T09:32:25.716Z,101279.56
2023-05-19T09:35:12.366Z,101330.03
2023-05-19T09:37:57.684Z,101310.84
2023-05-19T09:40:42.835Z,101331.56
2023-05-19T09:43:32.887Z,101316.38
2023-05-19T09:46:18.071Z,101320.31
2023-05-19T09:49:09.550Z,101275.34
2023-05-19T09:51:55.497Z,101266.25
2023-05-19T09:54:40.812Z,101296.75
2023-05-19T09:57:26.762Z,101295.56
2023-05-19T10:00:12.567Z,101279.28
2023-05-19T10:03:06.094Z,101251.69
2023-05-19T10:05:54.920Z,101259.09
2023-05-19T10:08:41.522Z,101267.31
2023-05-19T10:11:38.089Z,101288.88
2023-05-19T10:14:27.216Z,101246.22
2023-05-19T10:17:14.241Z,101277.50
2023-05-19T10:20:00.595Z,101229.94
2023-05-19T10:22:46.612Z,101255.00
2023-05-19T10:25:35.686Z,101228.66
2023-05-19T10:28:24.302Z,101233.38
2023-05-19T10:31:21.379Z,101215.97
2023-05-19T10:34:19.468Z,101181.72
2023-05-19T10:37:17.049Z,101213.97
2023-05-19T10:40:12.262Z,101214.75
2023-05-19T10:43:18.548Z,101252.38
2023-05-19T10:46:06.900Z,101256.97
2023-05-19T10:48:52.004Z,101265.44
2023-05-19T10:51:37.212Z,101267.22
2023-05-19T10:54:42.354Z,101234.97
2023-05-19T10:57:28.322Z,101192.50
2023-05-19T11:00:34.336Z,101202.69
2023-05-19T11:03:19.434Z,101183.81
2023-05-19T11:06:17.925Z,101231.75
2023-05-19T11:09:22.538Z,101201.41
2023-05-19T11:12:24.682Z,101194.19
2023-05-19T11:15:16.688Z,101188.50
2023-05-19T11:18:02.600Z,101198.91
2023-05-19T11:20:56.142Z,101152.91
2023-05-19T11:23:41.260Z,101141.41
2023-05-19T11:26:40.389Z,101147.84
2023-05-19T11:29:25.776Z,101172.75
2023-05-19T11:32:12.746Z,101149.78
2023-05-19T11:34:58.264Z,101162.88
2023-05-19T11:37:43.978Z,101176.34
2023-05-19T11:40:30.410Z,101176.94
2023-05-19T11:43:15.904Z,101196.97
2023-05-19T11:46:01.103Z,101212.53
2023-05-19T11:48:47.426Z,101169.41
2023-05-19T11:51:32.979Z,101151.94
2023-05-19T11:54:18.536Z,101199.84
2023-05-19T11:57:04.214Z,101172.41
2023-05-19T11:59:49.255Z,101177.50
2023-05-19T12:02:36.040Z,101161.28
2023-05-19T12:05:22.838Z,101146.56
2023-05-19T12:08:08.043Z,101105.81
2023-05-19T12:10:53.588Z,101136.75
2023-05-19T12:13:38.842Z,101102.03
2023-05-19T12:16:33.347Z,101101.84
2023-05-19T12:19:18.645Z,101149.28
2023-05-19T12:22:04.178Z,101098.06
2023-05-19T12:24:50.396Z,101093.38
2023-05-19T12:27:36.382Z,101087.00
2023-05-19T12:30:27.448Z,101109.59
2023-05-19T12:33:15.020Z,101066.88
2023-05-19T12:36:00.720Z,101050.47
2023-05-19T12:38:45.755Z,101066.53
2023-05-19T12:41:31.206Z,101056.78
2023-05-19T12:44:16.899Z,101080.44
2023-05-19T12:47:04.811Z,101093.94
2023-05-19T12:49:59.160Z,101120.91
2023-05-19T12:52:47.096Z,101113.88
2023-05-19T12:55:40.634Z,101123.50
2023-05-19T12:58:25.723Z,101125.75
2023-05-19T13:01:19.359Z,101029.75
2023-05-19T13:04:06.213Z,101096.81
2023-05-19T13:06:52.794Z,101026.78
2023-05-19T13:09:41.035Z,101082.19
2023-05-19T13:12:26.390Z,101057.88
2023-05-19T13:15:11.707Z,101102.56
2023-05-19T13:17:56.853Z,101110.69
2023-05-19T13:20:44.833Z,101075.59
2023-05-19T13:23:31.345Z,101072.06
2023-05-19T13:26:18.640Z,101075.19
2023-05-19T13:29:04.124Z,101052.56
2023-05-19T13:31:49.587Z,101067.13
2023-05-19T13:34:34.820Z,101079.44
2023-05-19T13:37:21.327Z,101109.47
2023-05-19T13:40:07.222Z,101098.50
2023-05-19T13:42:52.430Z,101095.00
2023-05-19T13:45:37.828Z,101101.84
2023-05-19T13:48:23.368Z,101117.13
2023-05-19T13:51:11.518Z,101116.88
2023-05-19T13:54:01.758Z,101110.44
2023-05-19T13:56:46.867Z,101098.19
2023-05-19T13:59:32.203Z,101112.88
2023-05-19T14:02:16.984Z,101138.22
2023-05-19T14:05:02.487Z,101154.47
2023-05-19T14:07:48.029Z,101138.88
2023-05-19T14:10:33.430Z,101155.69
2023-05-19T14:13:32.602Z,101132.34
2023-05-19T14:16:20.249Z,101135.66
2023-05-19T14:19:05.484Z,101125.22
2023-05-19T14:21:50.722Z,101118.63
2023-05-19T14:24:35.921Z,101084.38
2023-05-19T14:27:22.411Z,101144.03
2023-05-19T14:30:08.301Z,101162.28
2023-05-19T14:32:54.973Z,101144.41
2023-05-19T14:35:40.614Z,101159.56
2023-05-19T14:38:27.597Z,101146.59
2023-05-19T14:41:13.707Z,101145.16
2023-05-19T14:43:58.909Z,101169.53
2023-05-19T14:46:44.403Z,101152.16
2023-05-19T14:49:30.400Z,101140.91
2023-05-19T14:52:15.436Z,101148.63
2023-05-19T14:55:00.779Z,101162.34
2023-05-19T14:57:45.997Z,101166.53
2023-05-19T15:00:31.217Z,101166.28
2023-05-19T15:03:16.715Z,101143.06
2023-05-19T15:06:02.174Z,101192.41
2023-05-19T15:08:47.535Z,101168.34
2023-05-19T15:11:32.836Z,101173.50
2023-05-19T15:14:17.970Z,101145.06
2023-05-19T15:17:03.752Z,101139.97
2023-05-19T15:19:49.100Z,101138.09
2023-05-19T15:22:34.580Z,101157.28
2023-05-19T15:25:21.445Z,101135.44
2023-05-19T15:28:06.686Z,101127.56
2023-05-19T15:30:54.278Z,101117.31
2023-05-19T15:33:39.838Z,101119.69
2023-05-19T15:36:25.238Z,101111.63
2023-05-19T15:39:10.646Z,101094.97
2023-05-19T15:41:56.077Z,101103.53
2023-05-19T15:44:41.437Z,101133.03
2023-05-19T15:47:26.867Z,101104.28
2023-05-19T15:50:12.363Z,101115.75
2023-05-19T15:52:57.623Z,101117.56
2023-05-19T15:55:43.046Z,101090.81
2023-05-19T15:58:28.438Z,101092.59
2023-05-19T16:01:15.280Z,101110.13
2023-05-19T16:04:00.542Z,101096.28
2023-05-19T16:06:45.854Z,101115.38
2023-05-19T16:09:31.305Z,101102.25
2023-05-19T16:12:16.776Z,101106.69
2023-05-19T16:15:02.269Z,101097.84
2023-05-19T16:17:47.750Z,101106.34
2023-05-19T16:20:33.304Z,101090.59
2023-05-19T16:23:19.123Z,101104.84
2023-05-19T16:26:04.691Z,101107.66
2023-05-19T16:28:49.801Z,101108.84
2023-05-19T16:31:35.213Z,101130.88
2023-05-19T16:34:20.560Z,101145.72
2023-05-19T16:37:08.014Z,101137.06
2023-05-19T16:39:54.718Z,101162.13
2023-05-19T16:42:39.820Z,101142.16
2023-05-19T16:45:25.407Z,101143.75
2023-05-19T16:48:10.718Z,101127.03
2023-05-19T16:50:56.547Z,101141.84
2023-05-19T16:53:42.085Z,101145.38
2023-05-19T16:56:27.422Z,101160.31
2023-05-19T16:59:13.064Z,101177.63
2023-05-19T17:02:03.703Z,101153.91
2023-05-19T17:04:48.647Z,101139.94
2023-05-19T17:07:34.170Z,101156.50
2023-05-19T17:10:19.518Z,101160.22
2023-05-19T17:13:06.081Z,101159.59
2023-05-19T17:15:52.248Z,101179.66
2023-05-19T17:18:37.488Z,101188.53
2023-05-19T17:21:22.937Z,101199.75
2023-05-19T17:24:10.057Z,101172.66
2023-05-19T17:26:55.455Z,101178.59
2023-05-19T17:29:41.124Z,101145.38
2023-05-19T17:32:26.731Z,101166.38
2023-05-19T17:35:11.955Z,101178.00
2023-05-19T17:37:57.245Z,101169.31
2023-05-19T17:40:42.551Z,101182.50
2023-05-19T17:43:28.668Z,101183.41
2023-05-19T17:46:14.125Z,101187.84
2023-05-19T17:49:05.292Z,101187.91
2023-05-19T17:51:52.580Z,101200.25
2023-05-19T17:54:41.758Z,101213.38
2023-05-19T17:57:30.626Z,101215.03
2023-05-19T18:00:16.104Z,101213.31
2023-05-19T18:03:01.511Z,101219.44
2023-05-19T18:05:47.205Z,101221.16
2023-05-19T18:08:33.539Z,101224.66
2023-05-19T18:11:19.015Z,101222.06
2023-05-19T18:14:04.034Z,101233.50
2023-05-19T18:16:49.612Z,101250.97
2023-05-19T18:19:34.815Z,101258.91
2023-05-19T18:22:21.247Z,101265.03
2023-05-19T18:25:06.777Z,101278.97
2023-05-19T18:27:53.400Z,101283.31
2023-05-19T18:30:38.389Z,101288.56
2023-05-19T18:33:25.865Z,101297.34
2023-05-19T18:36:12.395Z,101302.56
2023-05-19T18:38:58.905Z,101299.09
2023-05-19T18:41:44.160Z,101312.16
2023-05-19T18:44:29.592Z,101319.09
2023-05-19T18:47:17.980Z,101307.78
2023-05-19T18:50:03.547Z,101310.38
2023-05-19T18:52:48.745Z,101318.22
2023-05-19T18:55:35.431Z,101318.22
2023-05-19T18:58:21.626Z,101318.19
2023-05-19T19:01:07.129Z,101325.22
2023-05-19T19:03:52.364Z,101340.91
2023-05-19T19:06:37.824Z,101321.75
2023-05-19T19:09:22.738Z,101340.94
2023-05-19T19:12:08.274Z,101336.56
2023-05-19T19:14:53.786Z,101355.75
2023-05-19T19:17:38.949Z,101351.41
2023-05-19T19:20:24.379Z,101360.13
2023-05-19T19:23:09.649Z,101368.84
2023-05-19T19:25:54.938Z,101374.09
2023-05-19T19:28:40.272Z,101373.22
2023-05-19T19:31:25.716Z,101384.53
2023-05-19T19:34:11.130Z,101376.69
2023-05-19T19:36:57.152Z,101393.25
2023-05-19T19:39:42.728Z,101401.09
2023-05-19T19:42:29.419Z,101408.94
2023-05-19T19:45:15.650Z,101402.84
2023-05-19T19:48:01.222Z,101408.91
2023-05-19T19:50:46.511Z,101401.94
2023-05-19T19:53:31.768Z,101411.53
2023-05-19T19:56:17.224Z,101419.34
2023-05-19T19:59:02.603Z,101421.09
2023-05-19T20:01:48.052Z,101421.88
2023-05-19T20:04:33.488Z,101427.94
2023-05-19T20:07:18.853Z,101436.63
2023-05-19T20:10:04.692Z,101439.22
2023-05-19T20:12:49.793Z,101444.47
2023-05-19T20:15:35.242Z,101441.78
2023-05-19T20:18:20.648Z,101457.44
2023-05-19T20:21:06.015Z,101453.91
2023-05-19T20:23:51.451Z,101464.34
2023-05-19T20:26:36.752Z,101465.09
2023-05-19T20:29:22.153Z,101476.38
2023-05-19T20:32:07.411Z,101480.72
2023-05-19T20:34:52.678Z,101475.41
2023-05-19T20:37:37.671Z,101482.34
2023-05-19T20:40:22.966Z,101488.31
2023-05-19T20:43:08.468Z,101493.50
2023-05-19T20:45:53.894Z,101494.34
2023-05-19T20:48:39.170Z,101498.53
2023-05-19T20:51:24.577Z,101491.59
2023-05-19T20:54:10.001Z,101488.91
2023-05-19T20:56:55.625Z,101495.78
2023-05-19T20:59:40.790Z,101504.53
2023-05-19T21:02:25.936Z,101491.38
2023-05-19T21:05:11.505Z,101508.75
2023-05-19T21:07:56.689Z,101510.50
2023-05-19T21:10:41.701Z,101510.47
2023-05-19T21:13:27.077Z,101510.41
2023-05-19T21:16:12.501Z,101505.13
2023-05-19T21:18:57.929Z,101512.00
2023-05-19T21:21:43.217Z,101518.13
2023-05-19T21:24:28.440Z,101526.75
2023-05-19T21:27:13.755Z,101525.84
2023-05-19T21:29:59.016Z,101537.72
2023-05-19T21:32:44.468Z,101539.47
2023-05-19T21:35:29.933Z,101547.28
2023-05-19T21:38:23.576Z,101546.28
2023-05-19T21:41:09.191Z,101541.09
2023-05-19T21:43:54.597Z,101538.41
2023-05-19T21:46:40.138Z,101544.53
2023-05-19T21:49:25.290Z,101543.47
2023-05-19T21:52:10.625Z,101546.91
2023-05-19T21:54:56.173Z,101554.59
2023-05-19T21:57:41.322Z,101542.28
2023-05-19T22:00:26.623Z,101556.25
2023-05-19T22:03:12.120Z,101558.75
2023-05-19T22:05:57.556Z,101557.75
2023-05-19T22:08:42.866Z,101558.63
2023-05-19T22:11:28.398Z,101559.59
2023-05-19T22:14:13.661Z,101559.41
2023-05-19T22:16:59.110Z,101565.53
2023-05-19T22:19:45.372Z,101565.31
2023-05-19T22:22:30.546Z,101567.03
2023-05-19T22:25:16.244Z,101560.06
2023-05-19T22:28:01.526Z,101563.44
2023-05-19T22:30:46.578Z,101563.38
2023-05-19T22:33:32.053Z,101567.69
2023-05-19T22:36:17.376Z,101576.34
2023-05-19T22:39:02.824Z,101573.75
2023-05-19T22:41:47.970Z,101576.16
2023-05-19T22:44:33.093Z,101574.38
2023-05-19T22:47:18.135Z,101577.84
2023-05-19T22:50:03.946Z,101581.31
2023-05-19T22:52:49.238Z,101582.06
2023-05-19T22:55:34.770Z,101575.91
2023-05-19T22:58:20.359Z,101582.78
2023-05-19T23:01:05.728Z,101573.25
2023-05-19T23:03:50.829Z,101580.03
2023-05-19T23:06:35.963Z,101577.44
2023-05-19T23:09:21.880Z,101579.00
2023-05-19T23:12:07.279Z,101589.41
2023-05-19T23:14:52.823Z,101582.44
2023-05-19T23:17:37.980Z,101585.06
2023-05-19T23:20:23.315Z,101585.06
2023-05-19T23:23:08.761Z,101588.38
2023-05-19T23:25:54.108Z,101582.25
2023-05-19T23:28:41.401Z,101578.75
2023-05-19T23:31:26.386Z,101578.09
2023-05-19T23:34:11.765Z,101573.59
2023-05-19T23:36:57.187Z,101576.25
2023-05-19T23:39:42.688Z,101571.84
2023-05-19T23:42:27.772Z,101565.09
2023-05-19T23:45:13.077Z,101565.09
2023-05-19T23:47:58.925Z,101575.53
2023-05-19T23:50:44.754Z,101580.75
2023-05-19T23:53:30.238Z,101572.75
2023-05-19T23:56:15.734Z,101579.00
2023-05-19T23:59:01.118Z,101574.72
